sensor_id;sensor_type;location;lat;lon;timestamp;pressure;altitude;pressure_sealevel;temperature;humidity
42727;BME280;28372;56.832;60.658;2024-01-10T00:00:54;95770.19;;;-12.02;44.67
42727;BME280;28372;56.832;60.658;2024-01-10T00:03:22;95758.44;;;-11.99;45.11
42727;BME280;28372;56.832;60.658;2024-01-10T00:05:50;95751.41;;;-11.99;44.09
42727;BME280;28372;56.832;60.658;2024-01-10T00:08:18;95750.84;;;-11.96;43.51
42727;BME280;28372;56.832;60.658;2024-01-10T00:10:46;95753.19;;;-11.94;44.79
42727;BME280;28372;56.832;60.658;2024-01-10T00:13:13;95741.00;;;-11.99;45.83
42727;BME280;28372;56.832;60.658;2024-01-10T00:15:41;95740.31;;;-12.10;43.28
42727;BME280;28372;56.832;60.658;2024-01-10T00:18:09;95747.00;;;-12.03;45.54
42727;BME280;28372;56.832;60.658;2024-01-10T00:20:37;95748.53;;;-11.97;44.24
42727;BME280;28372;56.832;60.658;2024-01-10T00:23:06;95727.28;;;-12.10;44.83
42727;BME280;28372;56.832;60.658;2024-01-10T00:25:34;95751.53;;;-11.90;44.67
42727;BME280;28372;56.832;60.658;2024-01-10T00:28:02;95755.56;;;-11.98;44.95
42727;BME280;28372;56.832;60.658;2024-01-10T00:30:29;95734.53;;;-12.07;47.88
42727;BME280;28372;56.832;60.658;2024-01-10T00:32:57;95736.31;;;-12.02;46.02
42727;BME280;28372;56.832;60.658;2024-01-10T00:35:25;95739.72;;;-12.01;45.80
42727;BME280;28372;56.832;60.658;2024-01-10T00:37:53;95750.41;;;-12.03;43.54
42727;BME280;28372;56.832;60.658;2024-01-10T00:40:21;95736.09;;;-12.06;45.18
42727;BME280;28372;56.832;60.658;2024-01-10T00:42:49;95735.22;;;-11.96;45.91
42727;BME280;28372;56.832;60.658;2024-01-10T00:45:16;95737.88;;;-12.01;44.64
42727;BME280;28372;56.832;60.658;2024-01-10T00:47:44;95734.53;;;-12.07;47.25
42727;BME280;28372;56.832;60.658;2024-01-10T00:50:12;95719.78;;;-12.16;44.37
42727;BME280;28372;56.832;60.658;2024-01-10T00:52:40;95712.97;;;-12.12;45.07
42727;BME280;28372;56.832;60.658;2024-01-10T00:55:08;95699.22;;;-12.18;44.89
42727;BME280;28372;56.832;60.658;2024-01-10T00:57:36;95717.09;;;-12.06;46.46
42727;BME280;28372;56.832;60.658;2024-01-10T01:00:07;95708.00;;;-12.09;43.20
42727;BME280;28372;56.832;60.658;2024-01-10T01:02:35;95704.72;;;-12.19;45.67
42727;BME280;28372;56.832;60.658;2024-01-10T01:05:03;95709.31;;;-12.11;45.66
42727;BME280;28372;56.832;60.658;2024-01-10T01:07:31;95682.59;;;-12.22;44.88
42727;BME280;28372;56.832;60.658;2024-01-10T01:09:59;95691.63;;;-12.14;44.01
42727;BME280;28372;56.832;60.658;2024-01-10T01:12:27;95699.66;;;-12.11;44.43
42727;BME280;28372;56.832;60.658;2024-01-10T01:14:55;95677.66;;;-12.24;44.89
42727;BME280;28372;56.832;60.658;2024-01-10T01:17:24;95687.25;;;-12.19;44.60
42727;BME280;28372;56.832;60.658;2024-01-10T01:19:51;95680.25;;;-12.24;43.47
42727;BME280;28372;56.832;60.658;2024-01-10T01:22:19;95668.88;;;-12.33;46.07
42727;BME280;28372;56.832;60.658;2024-01-10T01:24:47;95682.88;;;-12.24;45.10
42727;BME280;28372;56.832;60.658;2024-01-10T01:27:15;95672.72;;;-12.25;45.11
42727;BME280;28372;56.832;60.658;2024-01-10T01:29:42;95663.34;;;-12.26;45.98
42727;BME280;28372;56.832;60.658;2024-01-10T01:32:11;95679.59;;;-12.10;45.54
42727;BME280;28372;56.832;60.658;2024-01-10T01:34:38;95664.50;;;-12.13;46.23
42727;BME280;28372;56.832;60.658;2024-01-10T01:37:06;95656.69;;;-12.13;44.08
42727;BME280;28372;56.832;60.658;2024-01-10T01:39:34;95650.44;;;-12.12;46.40
42727;BME280;28372;56.832;60.658;2024-01-10T01:42:02;95650.88;;;-12.05;46.54
42727;BME280;28372;56.832;60.658;2024-01-10T01:44:30;95654.13;;;-11.94;47.53
42727;BME280;28372;56.832;60.658;2024-01-10T01:46:59;95654.25;;;-11.85;46.78
42727;BME280;28372;56.832;60.658;2024-01-10T01:49:28;95649.25;;;-11.82;45.80
42727;BME280;28372;56.832;60.658;2024-01-10T01:51:56;95644.63;;;-11.85;46.69
42727;BME280;28372;56.832;60.658;2024-01-10T01:54:25;95645.31;;;-11.79;48.31
42727;BME280;28372;56.832;60.658;2024-01-10T01:56:53;95644.25;;;-11.78;45.05
42727;BME280;28372;56.832;60.658;2024-01-10T01:59:22;95636.28;;;-11.87;47.30
42727;BME280;28372;56.832;60.658;2024-01-10T02:01:51;95624.59;;;-11.90;46.59
42727;BME280;28372;56.832;60.658;2024-01-10T02:04:20;95630.50;;;-11.84;44.09
42727;BME280;28372;56.832;60.658;2024-01-10T02:06:48;95614.38;;;-11.86;46.15
42727;BME280;28372;56.832;60.658;2024-01-10T02:09:15;95623.09;;;-11.77;47.32
42727;BME280;28372;56.832;60.658;2024-01-10T02:11:43;95603.31;;;-11.78;47.02
42727;BME280;28372;56.832;60.658;2024-01-10T02:14:12;95599.38;;;-11.75;45.59
42727;BME280;28372;56.832;60.658;2024-01-10T02:16:40;95594.81;;;-11.83;44.33
42727;BME280;28372;56.832;60.658;2024-01-10T02:19:19;95594.28;;;-11.85;47.54
42727;BME280;28372;56.832;60.658;2024-01-10T02:21:47;95590.16;;;-11.86;45.39
42727;BME280;28372;56.832;60.658;2024-01-10T02:24:16;95585.00;;;-11.92;43.81
42727;BME280;28372;56.832;60.658;2024-01-10T02:26:44;95592.13;;;-11.97;45.05
42727;BME280;28372;56.832;60.658;2024-01-10T02:29:11;95573.25;;;-12.08;46.38
42727;BME280;28372;56.832;60.658;2024-01-10T02:31:39;95584.25;;;-12.11;43.78
42727;BME280;28372;56.832;60.658;2024-01-10T02:34:07;95572.25;;;-12.12;45.99
42727;BME280;28372;56.832;60.658;2024-01-10T02:36:35;95561.97;;;-12.23;43.55
42727;BME280;28372;56.832;60.658;2024-01-10T02:39:03;95562.75;;;-12.22;47.07
42727;BME280;28372;56.832;60.658;2024-01-10T02:41:31;95564.34;;;-12.26;47.69
42727;BME280;28372;56.832;60.658;2024-01-10T02:43:59;95571.13;;;-12.25;46.87
42727;BME280;28372;56.832;60.658;2024-01-10T02:46:27;95551.66;;;-12.33;47.06
42727;BME280;28372;56.832;60.658;2024-01-10T02:48:57;95563.59;;;-12.27;43.89
42727;BME280;28372;56.832;60.658;2024-01-10T02:51:27;95569.28;;;-12.25;45.27
42727;BME280;28372;56.832;60.658;2024-01-10T02:53:55;95562.03;;;-12.28;45.46
42727;BME280;28372;56.832;60.658;2024-01-10T02:56:23;95549.69;;;-12.41;48.53
42727;BME280;28372;56.832;60.658;2024-01-10T02:58:51;95553.16;;;-12.27;46.50
42727;BME280;28372;56.832;60.658;2024-01-10T03:01:19;95563.16;;;-12.15;46.13
42727;BME280;28372;56.832;60.658;2024-01-10T03:03:47;95563.09;;;-12.10;45.39
42727;BME280;28372;56.832;60.658;2024-01-10T03:06:15;95549.31;;;-12.10;44.67
42727;BME280;28372;56.832;60.658;2024-01-10T03:08:43;95558.47;;;-12.13;45.46
42727;BME280;28372;56.832;60.658;2024-01-10T03:11:10;95535.41;;;-12.25;44.92
42727;BME280;28372;56.832;60.658;2024-01-10T03:13:40;95545.34;;;-12.08;47.06
42727;BME280;28372;56.832;60.658;2024-01-10T03:16:08;95545.28;;;-12.02;49.38
42727;BME280;28372;56.832;60.658;2024-01-10T03:18:36;95546.00;;;-11.97;47.72
42727;BME280;28372;56.832;60.658;2024-01-10T03:21:04;95539.31;;;-12.03;45.69
42727;BME280;28372;56.832;60.658;2024-01-10T03:23:32;95538.31;;;-12.07;43.79
42727;BME280;28372;56.832;60.658;2024-01-10T03:26:00;95531.56;;;-12.08;46.39
42727;BME280;28372;56.832;60.658;2024-01-10T03:28:28;95534.91;;;-12.08;45.74
42727;BME280;28372;56.832;60.658;2024-01-10T03:30:56;95517.81;;;-12.14;46.22
42727;BME280;28372;56.832;60.658;2024-01-10T03:33:26;95516.44;;;-12.06;45.48
42727;BME280;28372;56.832;60.658;2024-01-10T03:35:53;95517.25;;;-12.11;44.46
42727;BME280;28372;56.832;60.658;2024-01-10T03:38:21;95515.50;;;-12.15;47.46
42727;BME280;28372;56.832;60.658;2024-01-10T03:40:49;95517.13;;;-12.19;44.32
42727;BME280;28372;56.832;60.658;2024-01-10T03:43:17;95509.44;;;-12.30;45.06
42727;BME280;28372;56.832;60.658;2024-01-10T03:45:45;95520.97;;;-12.36;43.68
42727;BME280;28372;56.832;60.658;2024-01-10T03:48:13;95530.91;;;-12.38;43.96
42727;BME280;28372;56.832;60.658;2024-01-10T03:50:41;95512.25;;;-12.45;47.67
42727;BME280;28372;56.832;60.658;2024-01-10T03:53:08;95510.69;;;-12.46;45.84
42727;BME280;28372;56.832;60.658;2024-01-10T03:55:36;95509.06;;;-12.42;44.97
42727;BME280;28372;56.832;60.658;2024-01-10T03:58:05;95487.94;;;-12.60;43.18
42727;BME280;28372;56.832;60.658;2024-01-10T04:00:33;95509.84;;;-12.61;45.79
42727;BME280;28372;56.832;60.658;2024-01-10T04:03:00;95511.72;;;-12.66;42.32
42727;BME280;28372;56.832;60.658;2024-01-10T04:05:28;95521.13;;;-12.70;45.65
42727;BME280;28372;56.832;60.658;2024-01-10T04:07:56;95511.53;;;-12.75;44.32
42727;BME280;28372;56.832;60.658;2024-01-10T04:10:24;95509.50;;;-12.78;45.58
42727;BME280;28372;56.832;60.658;2024-01-10T04:12:52;95501.53;;;-12.87;43.28
42727;BME280;28372;56.832;60.658;2024-01-10T04:15:20;95513.78;;;-12.87;43.47
42727;BME280;28372;56.832;60.658;2024-01-10T04:17:48;95495.94;;;-12.99;46.06
42727;BME280;28372;56.832;60.658;2024-01-10T04:20:15;95492.28;;;-12.98;46.34
42727;BME280;28372;56.832;60.658;2024-01-10T04:22:44;95507.03;;;-12.88;45.10
42727;BME280;28372;56.832;60.658;2024-01-10T04:25:11;95488.66;;;-12.97;45.25
42727;BME280;28372;56.832;60.658;2024-01-10T04:27:39;95503.38;;;-12.87;43.33
42727;BME280;28372;56.832;60.658;2024-01-10T04:30:07;95496.09;;;-12.90;45.39
42727;BME280;28372;56.832;60.658;2024-01-10T04:32:35;95486.03;;;-12.97;45.68
42727;BME280;28372;56.832;60.658;2024-01-10T04:35:03;95487.00;;;-12.93;47.35
42727;BME280;28372;56.832;60.658;2024-01-10T04:37:31;95486.53;;;-12.95;43.50
42727;BME280;28372;56.832;60.658;2024-01-10T04:39:59;95497.53;;;-13.03;43.32
42727;BME280;28372;56.832;60.658;2024-01-10T04:42:27;95487.66;;;-13.01;44.61
42727;BME280;28372;56.832;60.658;2024-01-10T04:44:58;95489.19;;;-13.00;44.84
42727;BME280;28372;56.832;60.658;2024-01-10T04:47:26;95488.47;;;-13.06;44.02
42727;BME280;28372;56.832;60.658;2024-01-10T04:49:53;95496.94;;;-12.95;47.32
42727;BME280;28372;56.832;60.658;2024-01-10T04:52:21;95475.97;;;-13.04;45.16
42727;BME280;28372;56.832;60.658;2024-01-10T04:54:50;95478.78;;;-13.00;45.58
42727;BME280;28372;56.832;60.658;2024-01-10T04:57:17;95491.97;;;-12.92;45.25
42727;BME280;28372;56.832;60.658;2024-01-10T04:59:45;95481.31;;;-12.95;46.50
42727;BME280;28372;56.832;60.658;2024-01-10T05:02:14;95481.09;;;-12.99;45.40
42727;BME280;28372;56.832;60.658;2024-01-10T05:04:42;95481.59;;;-12.97;45.14
42727;BME280;28372;56.832;60.658;2024-01-10T05:07:10;95482.16;;;-13.00;44.43
42727;BME280;28372;56.832;60.658;2024-01-10T05:09:38;95472.31;;;-13.03;45.26
42727;BME280;28372;56.832;60.658;2024-01-10T05:12:06;95476.25;;;-13.05;43.94
42727;BME280;28372;56.832;60.658;2024-01-10T05:14:34;95472.41;;;-13.13;45.62
42727;BME280;28372;56.832;60.658;2024-01-10T05:17:02;95483.94;;;-13.19;43.67
42727;BME280;28372;56.832;60.658;2024-01-10T05:19:30;95476.88;;;-13.19;44.05
42727;BME280;28372;56.832;60.658;2024-01-10T05:21:58;95454.41;;;-13.34;44.08
42727;BME280;28372;56.832;60.658;2024-01-10T05:24:30;95470.13;;;-13.20;43.74
42727;BME280;28372;56.832;60.658;2024-01-10T05:26:57;95469.41;;;-13.26;43.88
42727;BME280;28372;56.832;60.658;2024-01-10T05:29:25;95459.59;;;-13.34;44.33
42727;BME280;28372;56.832;60.658;2024-01-10T05:31:54;95458.81;;;-13.29;46.13
42727;BME280;28372;56.832;60.658;2024-01-10T05:34:22;95471.69;;;-13.19;45.90
42727;BME280;28372;56.832;60.658;2024-01-10T05:36:50;95461.59;;;-13.26;43.61
42727;BME280;28372;56.832;60.658;2024-01-10T05:39:19;95451.72;;;-13.23;45.71
42727;BME280;28372;56.832;60.658;2024-01-10T05:41:48;95445.47;;;-13.22;44.77
42727;BME280;28372;56.832;60.658;2024-01-10T05:44:15;95459.84;;;-13.06;45.33
42727;BME280;28372;56.832;60.658;2024-01-10T05:46:44;95450.44;;;-13.02;45.78
42727;BME280;28372;56.832;60.658;2024-01-10T05:49:12;95451.56;;;-12.89;45.48
42727;BME280;28372;56.832;60.658;2024-01-10T05:51:40;95453.09;;;-12.83;44.19
42727;BME280;28372;56.832;60.658;2024-01-10T05:54:08;95442.47;;;-12.67;43.94
42727;BME280;28372;56.832;60.658;2024-01-10T05:56:36;95445.50;;;-12.60;45.53
42727;BME280;28372;56.832;60.658;2024-01-10T05:59:03;95440.03;;;-12.39;46.60
42727;BME280;28372;56.832;60.658;2024-01-10T06:01:31;95419.66;;;-12.18;49.37
42727;BME280;28372;56.832;60.658;2024-01-10T06:03:59;95428.53;;;-11.86;45.43
42727;BME280;28372;56.832;60.658;2024-01-10T06:06:28;95414.66;;;-11.68;47.66
42727;BME280;28372;56.832;60.658;2024-01-10T06:08:56;95428.00;;;-11.42;45.69
42727;BME280;28372;56.832;60.658;2024-01-10T06:11:24;95427.06;;;-11.18;46.58
42727;BME280;28372;56.832;60.658;2024-01-10T06:13:52;95429.88;;;-10.87;46.72
42727;BME280;28372;56.832;60.658;2024-01-10T06:16:24;95425.25;;;-10.39;51.09
42727;BME280;28372;56.832;60.658;2024-01-10T06:18:52;95419.72;;;-9.92;49.09
42727;BME280;28372;56.832;60.658;2024-01-10T06:21:19;95418.84;;;-9.56;46.95
42727;BME280;28372;56.832;60.658;2024-01-10T06:23:47;95427.63;;;-9.21;47.66
42727;BME280;28372;56.832;60.658;2024-01-10T06:26:15;95419.69;;;-8.98;47.71
42727;BME280;28372;56.832;60.658;2024-01-10T06:28:43;95419.28;;;-8.83;44.09
42727;BME280;28372;56.832;60.658;2024-01-10T06:31:11;95414.22;;;-8.79;42.54
42727;BME280;28372;56.832;60.658;2024-01-10T06:33:40;95414.03;;;-8.83;43.08
42727;BME280;28372;56.832;60.658;2024-01-10T06:36:08;95416.50;;;-8.86;41.35
42727;BME280;28372;56.832;60.658;2024-01-10T06:38:36;95433.28;;;-8.87;43.33
42727;BME280;28372;56.832;60.658;2024-01-10T06:41:10;95420.97;;;-8.87;41.96
42727;BME280;28372;56.832;60.658;2024-01-10T06:43:38;95417.41;;;-8.91;42.68
42727;BME280;28372;56.832;60.658;2024-01-10T06:46:06;95414.16;;;-8.88;40.75
42727;BME280;28372;56.832;60.658;2024-01-10T06:48:34;95409.28;;;-8.72;42.70
42727;BME280;28372;56.832;60.658;2024-01-10T06:51:10;95417.63;;;-8.35;45.91
42727;BME280;28372;56.832;60.658;2024-01-10T06:53:40;95415.13;;;-7.79;46.19
42727;BME280;28372;56.832;60.658;2024-01-10T06:56:09;95402.03;;;-7.31;47.22
42727;BME280;28372;56.832;60.658;2024-01-10T06:58:38;95405.66;;;-6.76;49.28
42727;BME280;28372;56.832;60.658;2024-01-10T07:01:14;95397.94;;;-6.30;49.43
42727;BME280;28372;56.832;60.658;2024-01-10T07:03:42;95400.97;;;-5.86;49.62
42727;BME280;28372;56.832;60.658;2024-01-10T07:06:12;95382.91;;;-5.63;46.66
42727;BME280;28372;56.832;60.658;2024-01-10T07:08:43;95392.50;;;-5.46;42.50
42727;BME280;28372;56.832;60.658;2024-01-10T07:11:12;95396.97;;;-5.59;39.22
42727;BME280;28372;56.832;60.658;2024-01-10T07:13:41;95403.50;;;-5.77;38.24
42727;BME280;28372;56.832;60.658;2024-01-10T07:16:09;95397.28;;;-6.06;38.16
42727;BME280;28372;56.832;60.658;2024-01-10T07:18:37;95398.91;;;-6.35;36.44
42727;BME280;28372;56.832;60.658;2024-01-10T07:21:05;95396.13;;;-6.60;36.82
42727;BME280;28372;56.832;60.658;2024-01-10T07:23:34;95393.06;;;-6.92;38.98
42727;BME280;28372;56.832;60.658;2024-01-10T07:26:02;95403.97;;;-7.11;37.16
42727;BME280;28372;56.832;60.658;2024-01-10T07:28:30;95381.81;;;-7.40;36.23
42727;BME280;28372;56.832;60.658;2024-01-10T07:30:59;95387.94;;;-7.65;35.81
42727;BME280;28372;56.832;60.658;2024-01-10T07:33:32;95391.22;;;-7.86;36.31
42727;BME280;28372;56.832;60.658;2024-01-10T07:36:01;95387.22;;;-7.92;36.96
42727;BME280;28372;56.832;60.658;2024-01-10T07:38:29;95373.66;;;-8.03;37.96
42727;BME280;28372;56.832;60.658;2024-01-10T07:41:00;95389.84;;;-8.10;38.58
42727;BME280;28372;56.832;60.658;2024-01-10T07:43:28;95375.97;;;-8.28;37.70
42727;BME280;28372;56.832;60.658;2024-01-10T07:45:57;95385.53;;;-8.32;38.41
42727;BME280;28372;56.832;60.658;2024-01-10T07:48:24;95392.50;;;-8.45;37.22
42727;BME280;28372;56.832;60.658;2024-01-10T07:50:53;95381.09;;;-8.57;37.15
42727;BME280;28372;56.832;60.658;2024-01-10T07:53:20;95382.47;;;-8.60;39.07
42727;BME280;28372;56.832;60.658;2024-01-10T07:55:48;95392.50;;;-8.53;37.82
42727;BME280;28372;56.832;60.658;2024-01-10T07:58:18;95380.94;;;-8.61;39.43
42727;BME280;28372;56.832;60.658;2024-01-10T08:00:48;95380.16;;;-8.70;37.67
42727;BME280;28372;56.832;60.658;2024-01-10T08:03:17;95363.94;;;-8.90;38.47
42727;BME280;28372;56.832;60.658;2024-01-10T08:05:46;95371.66;;;-8.85;39.94
42727;BME280;28372;56.832;60.658;2024-01-10T08:08:16;95367.00;;;-8.88;40.42
42727;BME280;28372;56.832;60.658;2024-01-10T08:10:44;95358.69;;;-8.99;36.62
42727;BME280;28372;56.832;60.658;2024-01-10T08:13:13;95362.06;;;-8.98;37.89
42727;BME280;28372;56.832;60.658;2024-01-10T08:15:41;95367.13;;;-9.10;39.63
42727;BME280;28372;56.832;60.658;2024-01-10T08:18:09;95358.34;;;-9.15;38.47
42727;BME280;28372;56.832;60.658;2024-01-10T08:20:37;95365.25;;;-9.19;37.58
42727;BME280;28372;56.832;60.658;2024-01-10T08:23:06;95362.31;;;-9.26;37.63
42727;BME280;28372;56.832;60.658;2024-01-10T08:25:36;95358.59;;;-9.34;37.32
42727;BME280;28372;56.832;60.658;2024-01-10T08:28:05;95352.13;;;-9.36;42.81
42727;BME280;28372;56.832;60.658;2024-01-10T08:30:33;95346.28;;;-9.33;41.52
42727;BME280;28372;56.832;60.658;2024-01-10T08:33:01;95339.03;;;-9.36;39.89
42727;BME280;28372;56.832;60.658;2024-01-10T08:35:32;95347.06;;;-9.33;39.26
42727;BME280;28372;56.832;60.658;2024-01-10T08:38:02;95346.25;;;-9.42;40.54
42727;BME280;28372;56.832;60.658;2024-01-10T08:40:36;95358.09;;;-9.44;42.90
42727;BME280;28372;56.832;60.658;2024-01-10T08:43:05;95358.28;;;-9.41;39.92
42727;BME280;28372;56.832;60.658;2024-01-10T08:45:33;95333.41;;;-9.61;40.14
42727;BME280;28372;56.832;60.658;2024-01-10T08:48:01;95335.88;;;-9.65;40.83
42727;BME280;28372;56.832;60.658;2024-01-10T08:50:32;95327.53;;;-9.67;39.58
42727;BME280;28372;56.832;60.658;2024-01-10T08:53:03;95326.44;;;-9.74;39.28
42727;BME280;28372;56.832;60.658;2024-01-10T08:55:32;95322.25;;;-9.75;38.44
42727;BME280;28372;56.832;60.658;2024-01-10T08:58:04;95329.94;;;-9.79;41.78
42727;BME280;28372;56.832;60.658;2024-01-10T09:00:32;95317.31;;;-9.86;41.42
42727;BME280;28372;56.832;60.658;2024-01-10T09:03:02;95331.16;;;-9.85;41.25
42727;BME280;28372;56.832;60.658;2024-01-10T09:05:30;95325.38;;;-9.96;40.99
42727;BME280;28372;56.832;60.658;2024-01-10T09:07:58;95331.06;;;-10.03;39.16
42727;BME280;28372;56.832;60.658;2024-01-10T09:10:29;95339.59;;;-9.88;43.10
42727;BME280;28372;56.832;60.658;2024-01-10T09:12:59;95341.44;;;-9.89;41.11
42727;BME280;28372;56.832;60.658;2024-01-10T09:15:26;95340.34;;;-9.88;41.21
42727;BME280;28372;56.832;60.658;2024-01-10T09:17:54;95331.44;;;-9.87;40.54
42727;BME280;28372;56.832;60.658;2024-01-10T09:20:22;95339.94;;;-9.81;40.10
42727;BME280;28372;56.832;60.658;2024-01-10T09:22:50;95327.28;;;-9.88;39.86
42727;BME280;28372;56.832;60.658;2024-01-10T09:25:19;95335.91;;;-9.87;39.52
42727;BME280;28372;56.832;60.658;2024-01-10T09:27:49;95333.75;;;-9.85;40.43
42727;BME280;28372;56.832;60.658;2024-01-10T09:30:17;95315.22;;;-9.98;43.06
42727;BME280;28372;56.832;60.658;2024-01-10T09:32:46;95327.53;;;-9.98;39.14
42727;BME280;28372;56.832;60.658;2024-01-10T09:35:15;95325.84;;;-10.03;44.38
42727;BME280;28372;56.832;60.658;2024-01-10T09:37:45;95339.06;;;-9.99;41.58
42727;BME280;28372;56.832;60.658;2024-01-10T09:40:15;95340.13;;;-10.00;40.06
42727;BME280;28372;56.832;60.658;2024-01-10T09:42:49;95341.69;;;-9.99;39.75
42727;BME280;28372;56.832;60.658;2024-01-10T09:45:18;95348.72;;;-10.08;42.47
42727;BME280;28372;56.832;60.658;2024-01-10T09:47:52;95343.78;;;-10.10;41.83
42727;BME280;28372;56.832;60.658;2024-01-10T09:50:23;95361.00;;;-10.09;43.64
42727;BME280;28372;56.832;60.658;2024-01-10T09:52:58;95363.63;;;-10.09;39.58
42727;BME280;28372;56.832;60.658;2024-01-10T09:55:36;95356.97;;;-10.15;43.62
42727;BME280;28372;56.832;60.658;2024-01-10T09:58:08;95360.00;;;-10.22;42.00
42727;BME280;28372;56.832;60.658;2024-01-10T10:00:41;95371.59;;;-10.37;39.49
42727;BME280;28372;56.832;60.658;2024-01-10T10:03:09;95366.16;;;-10.49;39.13
42727;BME280;28372;56.832;60.658;2024-01-10T10:05:40;95358.34;;;-10.63;43.69
42727;BME280;28372;56.832;60.658;2024-01-10T10:08:12;95373.84;;;-10.44;39.45
42727;BME280;28372;56.832;60.658;2024-01-10T10:10:44;95380.38;;;-10.55;41.98
42727;BME280;28372;56.832;60.658;2024-01-10T10:13:27;95374.44;;;-10.47;42.65
42727;BME280;28372;56.832;60.658;2024-01-10T10:16:04;95380.44;;;-10.46;41.44
42727;BME280;28372;56.832;60.658;2024-01-10T10:18:33;95379.78;;;-10.52;42.00
42727;BME280;28372;56.832;60.658;2024-01-10T10:21:11;95370.72;;;-10.55;40.90
42727;BME280;28372;56.832;60.658;2024-01-10T10:23:41;95393.50;;;-10.46;41.39
42727;BME280;28372;56.832;60.658;2024-01-10T10:26:15;95391.03;;;-10.52;41.89
42727;BME280;28372;56.832;60.658;2024-01-10T10:28:50;95405.84;;;-10.61;40.46
42727;BME280;28372;56.832;60.658;2024-01-10T10:31:20;95391.44;;;-10.72;43.18
42727;BME280;28372;56.832;60.658;2024-01-10T10:33:49;95401.22;;;-10.78;39.80
42727;BME280;28372;56.832;60.658;2024-01-10T10:36:20;95407.34;;;-10.82;40.13
42727;BME280;28372;56.832;60.658;2024-01-10T10:38:49;95411.09;;;-10.89;40.18
42727;BME280;28372;56.832;60.658;2024-01-10T10:41:18;95376.94;;;-11.15;40.74
42727;BME280;28372;56.832;60.658;2024-01-10T10:43:48;95412.19;;;-11.04;41.65
42727;BME280;28372;56.832;60.658;2024-01-10T10:46:18;95400.50;;;-11.06;41.24
42727;BME280;28372;56.832;60.658;2024-01-10T10:48:47;95424.16;;;-11.03;42.58
42727;BME280;28372;56.832;60.658;2024-01-10T10:51:33;95425.72;;;-11.02;41.44
42727;BME280;28372;56.832;60.658;2024-01-10T10:54:03;95422.13;;;-11.06;41.62
42727;BME280;28372;56.832;60.658;2024-01-10T10:56:34;95423.19;;;-11.07;41.68
42727;BME280;28372;56.832;60.658;2024-01-10T10:59:05;95410.84;;;-11.15;40.94
42727;BME280;28372;56.832;60.658;2024-01-10T11:01:38;95389.09;;;-11.38;39.15
42727;BME280;28372;56.832;60.658;2024-01-10T11:04:07;95415.56;;;-11.31;40.18
42727;BME280;28372;56.832;60.658;2024-01-10T11:06:35;95410.25;;;-11.54;40.87
42727;BME280;28372;56.832;60.658;2024-01-10T11:09:07;95431.19;;;-11.45;39.68
42727;BME280;28372;56.832;60.658;2024-01-10T11:20:27;95429.22;;;-11.81;38.95
42727;BME280;28372;56.832;60.658;2024-01-10T11:25:39;95435.31;;;-12.18;40.00
42727;BME280;28372;56.832;60.658;2024-01-10T11:28:12;95434.72;;;-12.34;39.13
42727;BME280;28372;56.832;60.658;2024-01-10T11:30:51;95435.59;;;-12.39;42.74
42727;BME280;28372;56.832;60.658;2024-01-10T11:33:36;95441.56;;;-12.38;42.20
42727;BME280;28372;56.832;60.658;2024-01-10T11:36:18;95427.78;;;-12.39;40.85
42727;BME280;28372;56.832;60.658;2024-01-10T11:46:39;95428.50;;;-12.52;42.73
42727;BME280;28372;56.832;60.658;2024-01-10T11:49:11;95435.22;;;-12.51;40.08
42727;BME280;28372;56.832;60.658;2024-01-10T11:51:43;95441.69;;;-12.68;39.92
42727;BME280;28372;56.832;60.658;2024-01-10T11:54:36;95433.31;;;-12.84;39.43
42727;BME280;28372;56.832;60.658;2024-01-10T11:57:29;95435.72;;;-12.87;41.74
42727;BME280;28372;56.832;60.658;2024-01-10T11:59:58;95433.53;;;-12.80;42.78
42727;BME280;28372;56.832;60.658;2024-01-10T12:02:33;95431.03;;;-12.90;43.51
42727;BME280;28372;56.832;60.658;2024-01-10T12:05:01;95441.06;;;-12.79;43.58
42727;BME280;28372;56.832;60.658;2024-01-10T12:07:30;95450.16;;;-12.76;43.10
42727;BME280;28372;56.832;60.658;2024-01-10T12:09:58;95454.63;;;-12.82;41.57
42727;BME280;28372;56.832;60.658;2024-01-10T12:12:26;95463.59;;;-12.93;40.73
42727;BME280;28372;56.832;60.658;2024-01-10T12:14:54;95464.44;;;-12.98;43.73
42727;BME280;28372;56.832;60.658;2024-01-10T12:17:22;95446.13;;;-13.12;46.45
42727;BME280;28372;56.832;60.658;2024-01-10T12:19:55;95470.88;;;-12.90;45.29
42727;BME280;28372;56.832;60.658;2024-01-10T12:22:23;95457.91;;;-12.95;43.56
42727;BME280;28372;56.832;60.658;2024-01-10T12:24:50;95475.50;;;-12.87;41.68
42727;BME280;28372;56.832;60.658;2024-01-10T12:27:20;95459.56;;;-13.04;41.49
42727;BME280;28372;56.832;60.658;2024-01-10T12:29:53;95456.59;;;-13.17;42.84
42727;BME280;28372;56.832;60.658;2024-01-10T12:32:22;95475.97;;;-13.04;44.09
42727;BME280;28372;56.832;60.658;2024-01-10T12:35:03;95480.31;;;-12.99;45.37
42727;BME280;28372;56.832;60.658;2024-01-10T12:37:32;95467.22;;;-13.13;43.07
42727;BME280;28372;56.832;60.658;2024-01-10T12:40:01;95485.56;;;-13.04;45.26
42727;BME280;28372;56.832;60.658;2024-01-10T12:42:38;95479.94;;;-13.12;41.71
42727;BME280;28372;56.832;60.658;2024-01-10T12:45:20;95483.09;;;-13.15;41.59
42727;BME280;28372;56.832;60.658;2024-01-10T12:47:49;95492.47;;;-13.14;42.19
42727;BME280;28372;56.832;60.658;2024-01-10T12:50:17;95483.41;;;-13.21;42.63
42727;BME280;28372;56.832;60.658;2024-01-10T12:52:45;95495.38;;;-13.20;44.59
42727;BME280;28372;56.832;60.658;2024-01-10T12:55:17;95482.38;;;-13.20;44.62
42727;BME280;28372;56.832;60.658;2024-01-10T12:57:46;95494.50;;;-13.11;43.36
42727;BME280;28372;56.832;60.658;2024-01-10T13:00:15;95478.28;;;-13.27;43.29
42727;BME280;28372;56.832;60.658;2024-01-10T13:02:45;95488.16;;;-13.29;41.61
42727;BME280;28372;56.832;60.658;2024-01-10T13:05:14;95496.97;;;-13.24;46.00
42727;BME280;28372;56.832;60.658;2024-01-10T13:07:45;95503.94;;;-13.20;45.23
42727;BME280;28372;56.832;60.658;2024-01-10T13:10:48;95502.69;;;-13.22;42.02
42727;BME280;28372;56.832;60.658;2024-01-10T13:13:19;95509.69;;;-13.23;42.14